createdAt,value
2022-08-05T00:02:52.286Z,23.20
2022-08-05T00:06:05.410Z,23.07
2022-08-05T00:09:19.678Z,23.06
2022-08-05T00:12:22.822Z,22.99
2022-08-05T00:15:57.551Z,22.95
2022-08-05T00:18:49.645Z,23.04
2022-08-05T00:21:54.418Z,22.93
2022-08-05T00:24:57.877Z,22.94
2022-08-05T00:28:00.694Z,22.87
2022-08-05T00:31:07.607Z,22.73
2022-08-05T00:34:54.216Z,22.83
2022-08-05T00:37:50.763Z,22.93
2022-08-05T00:41:01.973Z,22.98
2022-08-05T00:44:05.397Z,23.01
2022-08-05T00:47:08.061Z,23.02
2022-08-05T00:50:15.328Z,22.96
2022-08-05T00:54:01.375Z,22.98
2022-08-05T00:56:51.272Z,22.97
2022-08-05T00:59:55.127Z,23.09
2022-08-05T01:02:59.847Z,23.02
2022-08-05T01:06:05.445Z,23.05
2022-08-05T01:09:11.458Z,23.08
2022-08-05T01:12:19.179Z,23.10
2022-08-05T01:15:36.147Z,23.18
2022-08-05T01:18:43.543Z,23.19
2022-08-05T01:22:06.066Z,23.31
2022-08-05T01:25:14.526Z,23.46
2022-08-05T01:28:57.423Z,23.70
2022-08-05T01:32:12.530Z,23.73
2022-08-05T01:35:50.886Z,24.00
2022-08-05T01:38:50.899Z,24.14
2022-08-05T01:41:56.169Z,24.30
2022-08-05T01:45:02.427Z,24.36
2022-08-05T01:48:10.479Z,24.51
2022-08-05T01:51:17.104Z,24.63
2022-08-05T01:54:25.477Z,24.69
2022-08-05T01:58:10.298Z,24.62
2022-08-05T02:00:59.037Z,24.63
2022-08-05T02:04:04.170Z,24.67
2022-08-05T02:07:07.185Z,24.73
2022-08-05T02:10:17.483Z,24.77
2022-08-05T02:13:53.093Z,24.84
2022-08-05T02:17:08.263Z,24.86
2022-08-05T02:20:23.380Z,24.88
2022-08-05T02:23:33.557Z,24.95
2022-08-05T02:26:53.745Z,24.91
2022-08-05T02:30:01.204Z,24.91
2022-08-05T02:33:06.612Z,24.96
2022-08-05T02:36:15.670Z,24.94
2022-08-05T02:39:21.826Z,24.88
2022-08-05T02:42:27.600Z,24.88
2022-08-05T02:45:52.046Z,24.87
2022-08-05T02:48:57.167Z,24.88
2022-08-05T02:52:03.459Z,24.92
2022-08-05T02:55:10.971Z,25.00
2022-08-05T02:58:17.043Z,25.06
2022-08-05T03:01:25.452Z,25.02
2022-08-05T03:04:30.832Z,25.00
2022-08-05T03:08:00.435Z,24.98
2022-08-05T03:11:50.039Z,24.96
2022-08-05T03:14:21.413Z,24.97
2022-08-05T03:17:24.149Z,24.88
2022-08-05T03:20:28.383Z,24.86
2022-08-05T03:23:32.528Z,24.81
2022-08-05T03:26:38.373Z,24.81
2022-08-05T03:29:45.325Z,24.78
2022-08-05T03:33:06.129Z,24.75
2022-08-05T03:36:12.155Z,24.72
2022-08-05T03:39:26.806Z,24.63
2022-08-05T03:42:32.086Z,24.54
2022-08-05T03:45:58.137Z,24.48
2022-08-05T03:48:58.832Z,24.38
2022-08-05T03:52:50.074Z,24.30
2022-08-05T03:56:05.809Z,24.29
2022-08-05T03:59:02.998Z,24.22
2022-08-05T04:02:10.058Z,24.17
2022-08-05T04:05:19.011Z,24.13
2022-08-05T04:08:35.318Z,24.12
2022-08-05T04:11:50.712Z,24.17
2022-08-05T04:14:57.641Z,24.12
2022-08-05T04:18:07.006Z,24.09
2022-08-05T04:21:12.081Z,24.09
2022-08-05T04:24:27.754Z,24.16
2022-08-05T04:27:33.059Z,24.26
2022-08-05T04:30:45.492Z,24.31
2022-08-05T04:34:17.594Z,24.36
2022-08-05T04:37:12.951Z,24.50
2022-08-05T04:40:17.096Z,24.56
2022-08-05T04:43:22.699Z,24.61
2022-08-05T04:46:28.754Z,24.68
2022-08-05T04:49:38.415Z,24.79
2022-08-05T04:52:54.434Z,24.86
2022-08-05T04:56:14.466Z,24.94
2022-08-05T04:59:23.896Z,25.01
2022-08-05T05:02:37.593Z,25.12
2022-08-05T05:06:39.594Z,25.25
2022-08-05T05:09:14.073Z,25.37
2022-08-05T05:12:20.437Z,25.41
2022-08-05T05:15:59.391Z,25.55
2022-08-05T05:19:16.431Z,25.69
2022-08-05T05:22:23.636Z,25.99
2022-08-05T05:25:40.480Z,26.33
2022-08-05T05:28:44.954Z,26.92
2022-08-05T05:31:47.862Z,27.26
2022-08-05T05:34:52.377Z,27.52
2022-08-05T05:38:01.779Z,27.99
2022-08-05T05:41:07.722Z,27.95
2022-08-05T05:44:15.737Z,28.09
2022-08-05T05:48:06.534Z,28.58
2022-08-05T05:50:59.524Z,28.93
2022-08-05T05:54:19.604Z,28.82
2022-08-05T05:57:22.509Z,28.88
2022-08-05T06:00:27.544Z,29.01
2022-08-05T06:04:00.664Z,29.09
2022-08-05T06:06:57.507Z,29.22
2022-08-05T06:10:10.239Z,29.38
2022-08-05T06:13:13.673Z,29.28
2022-08-05T06:16:30.167Z,29.26
2022-08-05T06:19:35.791Z,29.91
2022-08-05T06:22:40.391Z,30.16
2022-08-05T06:26:13.360Z,30.02
2022-08-05T06:29:25.390Z,29.99
2022-08-05T06:32:29.442Z,30.19
2022-08-05T06:36:06.823Z,29.76
2022-08-05T06:38:55.373Z,30.06
2022-08-05T06:42:01.381Z,29.87
2022-08-05T06:45:08.685Z,29.94
2022-08-05T06:48:52.549Z,29.99
2022-08-05T06:51:34.825Z,30.28
2022-08-05T06:54:38.973Z,30.60
2022-08-05T06:57:57.340Z,30.69
2022-08-05T07:01:08.213Z,30.98
2022-08-05T07:04:16.023Z,30.93
2022-08-05T07:07:35.262Z,31.13
2022-08-05T07:10:53.048Z,31.40
2022-08-05T07:14:29.660Z,31.66
2022-08-05T07:18:00.303Z,32.09
2022-08-05T07:20:57.305Z,32.25
2022-08-05T07:24:03.083Z,31.82
2022-08-05T07:27:14.053Z,32.00
2022-08-05T07:30:25.408Z,32.48
2022-08-05T07:33:36.813Z,32.47
2022-08-05T07:36:40.317Z,32.25
2022-08-05T07:40:04.419Z,32.31
2022-08-05T07:43:20.504Z,32.81
2022-08-05T07:46:26.719Z,32.39
2022-08-05T07:49:29.521Z,32.67
2022-08-05T07:52:32.499Z,32.63
2022-08-05T07:56:05.159Z,32.78
2022-08-05T07:58:59.246Z,32.54
2022-08-05T08:02:03.206Z,33.18
2022-08-05T08:05:07.232Z,33.23
2022-08-05T08:08:14.301Z,33.56
2022-08-05T08:11:18.546Z,33.71
2022-08-05T08:14:30.903Z,33.74
2022-08-05T08:17:35.312Z,33.95
2022-08-05T08:20:43.308Z,34.09
2022-08-05T08:24:04.898Z,34.20
2022-08-05T08:27:09.321Z,34.23
2022-08-05T08:30:28.572Z,34.98
2022-08-05T08:33:38.261Z,35.63
2022-08-05T08:36:48.841Z,35.42
2022-08-05T08:39:57.775Z,35.94
2022-08-05T08:45:16.283Z,35.81
2022-08-05T08:46:29.375Z,35.73
2022-08-05T08:50:22.604Z,35.79
2022-08-05T08:53:08.036Z,35.69
2022-08-05T08:56:11.984Z,35.82
2022-08-05T08:59:19.738Z,36.39
2022-08-05T09:02:26.939Z,37.16
2022-08-05T09:05:38.209Z,37.33
2022-08-05T09:08:52.985Z,37.05
2022-08-05T09:12:00.147Z,36.61
2022-08-05T09:15:09.961Z,36.59
2022-08-05T09:18:13.454Z,36.78
2022-08-05T09:21:21.238Z,37.16
2022-08-05T09:24:39.821Z,37.82
2022-08-05T09:28:05.387Z,37.85
2022-08-05T09:31:22.907Z,37.74
2022-08-05T09:34:52.257Z,38.22
2022-08-05T09:38:13.002Z,37.50
2022-08-05T09:41:21.796Z,38.04
2022-08-05T09:44:35.956Z,39.31
2022-08-05T09:47:55.496Z,39.60
2022-08-05T09:51:14.805Z,38.71
2022-08-05T09:54:31.962Z,39.17
2022-08-05T09:57:46.138Z,39.66
2022-08-05T10:00:55.149Z,38.19
2022-08-05T10:04:03.546Z,38.32
2022-08-05T10:07:19.907Z,38.61
2022-08-05T10:10:32.564Z,38.58
2022-08-05T10:13:46.283Z,39.34
2022-08-05T10:16:53.216Z,39.74
2022-08-05T10:20:04.120Z,39.35
2022-08-05T10:23:34.240Z,39.34
2022-08-05T10:26:51.397Z,39.37
2022-08-05T10:30:41.596Z,40.08
2022-08-05T10:33:18.267Z,40.16
2022-08-05T10:36:25.833Z,39.83
2022-08-05T10:39:58.948Z,40.16
2022-08-05T10:43:12.554Z,39.88
2022-08-05T10:46:17.794Z,40.67
2022-08-05T10:49:27.586Z,40.11
2022-08-05T10:52:49.516Z,39.94
2022-08-05T10:56:21.333Z,40.09
2022-08-05T11:00:02.840Z,39.86
2022-08-05T11:03:25.377Z,39.73
2022-08-05T11:06:30.750Z,39.58
2022-08-05T11:09:46.655Z,38.87
2022-08-05T11:12:55.034Z,39.81
2022-08-05T11:16:22.262Z,40.04
2022-08-05T11:20:10.473Z,40.32
2022-08-05T11:24:02.879Z,40.53
2022-08-05T11:27:50.833Z,40.80
2022-08-05T11:30:58.219Z,40.67
2022-08-05T11:34:08.032Z,39.81
2022-08-05T11:38:26.653Z,39.51
2022-08-05T11:41:34.592Z,39.65
2022-08-05T11:44:52.740Z,40.78
2022-08-05T11:47:58.035Z,40.77
2022-08-05T11:51:02.438Z,40.28
2022-08-05T11:54:05.241Z,40.23
2022-08-05T11:57:24.451Z,40.46
2022-08-05T12:00:31.354Z,41.23
2022-08-05T12:03:55.826Z,41.14
2022-08-05T12:07:02.165Z,41.70
2022-08-05T12:10:09.284Z,41.39
2022-08-05T12:13:27.908Z,41.37
2022-08-05T12:16:45.373Z,41.66
2022-08-05T12:20:27.272Z,42.06
2022-08-05T12:23:14.896Z,41.74
2022-08-05T12:26:17.441Z,39.96
2022-08-05T12:29:22.747Z,40.56
2022-08-05T12:32:25.956Z,40.01
2022-08-05T12:35:39.518Z,40.18
2022-08-05T12:38:43.078Z,40.33
2022-08-05T12:41:46.783Z,40.22
2022-08-05T12:44:51.254Z,39.90
2022-08-05T12:48:17.190Z,40.01
2022-08-05T12:52:10.924Z,40.01
2022-08-05T12:54:43.345Z,39.95
2022-08-05T12:58:52.625Z,40.68
2022-08-05T13:02:01.313Z,40.27
2022-08-05T13:04:41.884Z,40.22
2022-08-05T13:07:59.734Z,39.64
2022-08-05T13:11:04.079Z,39.93
2022-08-05T13:14:36.274Z,40.87
2022-08-05T13:17:41.263Z,41.24
2022-08-05T13:20:46.266Z,40.59
2022-08-05T13:23:50.783Z,38.76
2022-08-05T13:26:55.407Z,39.66
2022-08-05T13:30:34.475Z,40.34
2022-08-05T13:34:23.836Z,40.38
2022-08-05T13:36:45.130Z,40.08
2022-08-05T13:40:14.604Z,40.91
2022-08-05T13:43:13.928Z,40.63
2022-08-05T13:46:44.069Z,40.78
2022-08-05T13:49:52.421Z,40.65
2022-08-05T13:52:56.679Z,40.05
2022-08-05T13:56:02.255Z,40.05
2022-08-05T13:59:06.004Z,38.47
2022-08-05T14:02:26.531Z,39.12
2022-08-05T14:06:04.578Z,39.79
2022-08-05T14:08:55.494Z,39.75
2022-08-05T14:12:17.128Z,39.70
2022-08-05T14:16:06.346Z,39.53
2022-08-05T14:18:44.936Z,39.63
2022-08-05T14:22:09.278Z,38.96
2022-08-05T14:25:21.666Z,39.19
2022-08-05T14:28:26.981Z,39.19
2022-08-05T14:32:03.726Z,39.02
2022-08-05T14:34:53.792Z,38.80
2022-08-05T14:37:57.683Z,38.73
2022-08-05T14:41:07.705Z,38.35
2022-08-05T14:44:20.297Z,37.98
2022-08-05T14:48:02.972Z,38.10
2022-08-05T14:50:48.282Z,37.83
2022-08-05T14:54:26.524Z,37.65
2022-08-05T14:57:15.461Z,37.52
2022-08-05T15:00:20.032Z,37.53
2022-08-05T15:03:25.529Z,37.32
2022-08-05T15:06:30.271Z,37.11
2022-08-05T15:09:52.705Z,37.06
2022-08-05T15:13:03.376Z,36.99
2022-08-05T15:16:07.845Z,36.82
2022-08-05T15:19:23.391Z,36.66
2022-08-05T15:22:28.416Z,36.58
2022-08-05T15:25:51.219Z,36.41
2022-08-05T15:28:54.671Z,36.27
2022-08-05T15:32:02.275Z,36.04
2022-08-05T15:35:10.827Z,35.98
2022-08-05T15:38:33.857Z,35.94
2022-08-05T15:41:57.451Z,35.98
2022-08-05T15:45:02.338Z,35.89
2022-08-05T15:48:05.666Z,35.79
2022-08-05T15:51:09.728Z,35.91
2022-08-05T15:54:15.206Z,35.87
2022-08-05T15:57:18.829Z,35.92
2022-08-05T16:00:29.288Z,35.88
2022-08-05T16:03:50.829Z,35.85
2022-08-05T16:06:55.583Z,35.81
2022-08-05T16:09:59.111Z,35.68
2022-08-05T16:13:01.962Z,35.61
2022-08-05T16:16:10.802Z,35.49
2022-08-05T16:19:25.254Z,35.45
2022-08-05T16:22:37.682Z,35.41
2022-08-05T16:25:40.688Z,35.36
2022-08-05T16:28:44.897Z,35.31
2022-08-05T16:31:56.838Z,35.21
2022-08-05T16:35:02.137Z,35.19
2022-08-05T16:38:21.887Z,35.14
2022-08-05T16:42:15.180Z,35.12
2022-08-05T16:44:54.323Z,35.06
2022-08-05T16:48:03.192Z,35.01
2022-08-05T16:51:09.480Z,34.90
2022-08-05T16:54:22.483Z,34.87
2022-08-05T16:57:53.813Z,34.79
2022-08-05T17:00:53.285Z,34.75
2022-08-05T17:03:56.146Z,34.71
2022-08-05T17:07:03.467Z,34.52
2022-08-05T17:10:14.081Z,34.34
2022-08-05T17:13:21.646Z,34.22
2022-08-05T17:16:39.673Z,34.12
2022-08-05T17:19:45.585Z,33.99
2022-08-05T17:22:55.406Z,33.82
2022-08-05T17:26:02.294Z,33.74
2022-08-05T17:29:09.831Z,33.54
2022-08-05T17:32:17.327Z,33.34
2022-08-05T17:35:21.165Z,33.11
2022-08-05T17:38:24.162Z,32.86
2022-08-05T17:42:28.552Z,32.63
2022-08-05T17:44:52.684Z,32.42
2022-08-05T17:47:56.321Z,32.16
2022-08-05T17:50:59.494Z,32.04
2022-08-05T17:54:04.279Z,31.90
2022-08-05T17:57:07.256Z,31.77
2022-08-05T18:00:15.353Z,31.65
2022-08-05T18:06:42.233Z,31.29
2022-08-05T18:09:59.818Z,31.02
2022-08-05T18:13:07.657Z,30.83
2022-08-05T18:16:18.111Z,30.68
2022-08-05T18:19:25.826Z,30.55
2022-08-05T18:22:46.115Z,30.37
2022-08-05T18:25:57.861Z,30.26
2022-08-05T18:29:02.498Z,30.06
2022-08-05T18:32:05.726Z,29.98
2022-08-05T18:35:08.937Z,29.88
2022-08-05T18:38:16.537Z,29.82
2022-08-05T18:41:55.477Z,29.79
2022-08-05T18:44:51.809Z,29.76
2022-08-05T18:47:59.611Z,29.69
2022-08-05T18:52:04.188Z,29.72
2022-08-05T18:54:45.922Z,29.70
2022-08-05T18:57:52.602Z,29.66
2022-08-05T19:00:58.405Z,29.45
2022-08-05T19:04:05.424Z,29.19
2022-08-05T19:07:09.221Z,28.86
2022-08-05T19:10:12.179Z,28.86
2022-08-05T19:13:15.939Z,28.85
2022-08-05T19:16:25.068Z,28.83
2022-08-05T19:19:34.110Z,28.77
2022-08-05T19:22:37.290Z,28.85
2022-08-05T19:25:49.236Z,28.78
2022-08-05T19:28:52.329Z,28.73
2022-08-05T19:31:57.381Z,28.39
2022-08-05T19:35:05.651Z,28.45
2022-08-05T19:38:09.777Z,28.42
2022-08-05T19:41:14.994Z,28.40
2022-08-05T19:44:19.892Z,28.40
2022-08-05T19:47:22.834Z,28.28
2022-08-05T19:50:27.321Z,28.26
2022-08-05T19:54:04.466Z,28.09
2022-08-05T19:56:55.881Z,27.96
2022-08-05T20:00:01.985Z,27.87
2022-08-05T20:03:14.169Z,27.79
2022-08-05T20:06:25.993Z,27.73
2022-08-05T20:09:55.180Z,27.56
2022-08-05T20:12:55.733Z,27.56
2022-08-05T20:15:59.815Z,27.49
2022-08-05T20:19:03.574Z,27.25
2022-08-05T20:22:06.423Z,27.35
2022-08-05T20:25:12.884Z,26.98
2022-08-05T20:28:15.842Z,26.69
2022-08-05T20:31:22.849Z,26.76
2022-08-05T20:34:31.802Z,26.80
2022-08-05T20:38:06.405Z,26.79
2022-08-05T20:40:57.360Z,26.84
2022-08-05T20:44:17.118Z,26.85
2022-08-05T20:47:21.087Z,26.73
2022-08-05T20:50:37.755Z,26.64
2022-08-05T20:53:48.099Z,26.65
2022-08-05T20:56:59.144Z,26.75
2022-08-05T21:00:21.066Z,26.80
2022-08-05T21:03:25.093Z,26.61
2022-08-05T21:06:29.613Z,26.46
2022-08-05T21:09:33.693Z,26.49
2022-08-05T21:12:36.855Z,26.39
2022-08-05T21:15:46.122Z,26.38
2022-08-05T21:18:54.010Z,26.30
2022-08-05T21:21:58.443Z,26.41
2022-08-05T21:25:01.092Z,26.50
2022-08-05T21:28:05.592Z,26.50
2022-08-05T21:31:09.106Z,26.57
2022-08-05T21:34:12.390Z,26.62
2022-08-05T21:37:16.259Z,26.53
2022-08-05T21:40:19.175Z,26.51
2022-08-05T21:43:24.242Z,26.35
2022-08-05T21:46:29.304Z,26.29
2022-08-05T21:49:56.840Z,26.33
2022-08-05T21:52:58.839Z,26.37
2022-08-05T21:56:16.532Z,26.30
2022-08-05T21:59:23.950Z,26.27
2022-08-05T22:02:27.935Z,26.14
2022-08-05T22:05:48.898Z,26.10
2022-08-05T22:08:52.744Z,26.11
2022-08-05T22:11:55.718Z,26.05
2022-08-05T22:14:59.668Z,25.97
2022-08-05T22:18:03.282Z,25.86
2022-08-05T22:21:19.114Z,25.67
2022-08-05T22:24:51.736Z,25.72
2022-08-05T22:28:10.438Z,25.63
2022-08-05T22:31:14.481Z,25.52
2022-08-05T22:34:25.489Z,25.36
2022-08-05T22:37:58.860Z,25.30
2022-08-05T22:40:55.289Z,25.17
2022-08-05T22:43:59.485Z,25.15
2022-08-05T22:47:06.025Z,25.21
2022-08-05T22:50:20.196Z,25.09
2022-08-05T22:53:26.158Z,24.94
2022-08-05T22:56:39.836Z,24.81
2022-08-05T22:59:51.766Z,24.73
2022-08-05T23:02:57.109Z,24.64
2022-08-05T23:06:01.389Z,24.49
2022-08-05T23:09:27.425Z,24.37
2022-08-05T23:12:29.008Z,24.55
2022-08-05T23:15:36.396Z,24.59
2022-08-05T23:18:39.076Z,24.65
2022-08-05T23:21:48.325Z,24.65
2022-08-05T23:24:54.217Z,24.60
2022-08-05T23:27:57.922Z,24.51
2022-08-05T23:31:16.444Z,24.74
2022-08-05T23:34:24.373Z,24.61
2022-08-05T23:37:36.438Z,24.46
2022-08-05T23:40:39.776Z,24.46
2022-08-05T23:44:06.440Z,24.40
2022-08-05T23:47:15.598Z,24.43
2022-08-05T23:50:20.281Z,24.45
2022-08-05T23:53:23.456Z,24.37
2022-08-05T23:56:31.230Z,24.39
